Time;durP1;ratioP1;P1;durP2;ratioP2;P2;SDS_P1;SDS_P2;PMS_P1;PMS_P2;Temp;Humidity;BMP_temperature;BMP_pressure;BME280_temperature;BME280_humidity;BME280_pressure;Samples;Min_cycle;Max_cycle;Signal;HPM_P1;HPM_P2
2022/07/08 00:01:07;;;;;;;;;;;21.50;74.00;;;;;;5032828;28;713;-67
2022/07/08 00:03:32;;;;;;;;;;;21.60;74.00;;;;;;5032098;28;903;-67
2022/07/08 00:05:58;;;;;;;;;;;21.50;74.00;;;;;;5032249;28;1181;-67
2022/07/08 00:08:23;;;;;;;;;;;21.50;74.00;;;;;;5032624;28;1974;-67
2022/07/08 00:10:49;;;;;;;;;;;21.50;74.00;;;;;;5032675;28;892;-67
2022/07/08 00:13:14;;;;;;;;;;;21.50;73.90;;;;;;5032175;28;1006;-67
2022/07/08 00:15:40;;;;;;;;;;;21.50;74.00;;;;;;5014323;28;1155;-67
2022/07/08 00:18:05;;;;;;;;;;;21.50;74.00;;;;;;5032075;28;1210;-67
2022/07/08 00:20:30;;;;;;;;;;;21.50;73.90;;;;;;5032514;28;1103;-67
2022/07/08 00:22:57;;;;;;;;;;;21.60;74.00;;;;;;5031714;28;1286;-67
2022/07/08 00:25:22;;;;;;;;;;;21.50;74.00;;;;;;5019114;28;1290;-67
2022/07/08 00:27:47;;;;;;;;;;;21.50;74.00;;;;;;5018175;28;1279;-67
2022/07/08 00:30:13;;;;;;;;;;;21.50;74.00;;;;;;5011187;28;1899;-67
2022/07/08 00:32:38;;;;;;;;;;;21.50;74.00;;;;;;5012454;28;797;-67
2022/07/08 00:35:04;;;;;;;;;;;21.50;74.00;;;;;;5011176;28;1290;-67
2022/07/08 00:37:29;;;;;;;;;;;21.50;74.00;;;;;;5013267;28;1146;-67
2022/07/08 00:39:55;;;;;;;;;;;21.50;74.00;;;;;;5012914;28;860;-67
2022/07/08 00:42:20;;;;;;;;;;;21.50;74.00;;;;;;5012776;28;856;-67
2022/07/08 00:44:46;;;;;;;;;;;21.50;74.00;;;;;;5029449;28;2188;-67
2022/07/08 00:47:11;;;;;;;;;;;21.50;74.00;;;;;;5041832;28;1361;-67
2022/07/08 00:49:37;;;;;;;;;;;21.50;74.00;;;;;;5032036;28;1906;-67
2022/07/08 00:52:02;;;;;;;;;;;21.50;74.00;;;;;;5033156;28;2195;-67
2022/07/08 00:54:28;;;;;;;;;;;21.50;74.00;;;;;;5036732;28;1238;-67
2022/07/08 00:56:54;;;;;;;;;;;21.50;74.00;;;;;;5022639;28;1354;-67
2022/07/08 00:59:20;;;;;;;;;;;21.60;74.10;;;;;;5033197;28;1011;-67
2022/07/08 01:01:45;;;;;;;;;;;21.50;74.00;;;;;;5021686;28;1091;-67
2022/07/08 01:04:11;;;;;;;;;;;21.50;74.00;;;;;;5033214;28;1083;-67
2022/07/08 01:06:36;;;;;;;;;;;21.50;74.00;;;;;;5030743;28;1236;-67
2022/07/08 01:09:02;;;;;;;;;;;21.50;74.00;;;;;;5054331;22;1898;-70
2022/07/08 01:11:27;;;;;;;;;;;21.50;74.00;;;;;;4984588;28;1235;-71
2022/07/08 01:13:52;;;;;;;;;;;21.50;74.00;;;;;;4998595;28;1076;-71
2022/07/08 01:16:18;;;;;;;;;;;21.50;74.00;;;;;;5010830;28;1109;-71
2022/07/08 01:18:43;;;;;;;;;;;21.50;74.00;;;;;;5018248;28;1213;-71
2022/07/08 01:21:09;;;;;;;;;;;21.50;74.00;;;;;;5036102;28;906;-71
2022/07/08 01:23:34;;;;;;;;;;;21.50;74.00;;;;;;5018327;28;1017;-71
2022/07/08 01:26:00;;;;;;;;;;;21.50;74.00;;;;;;5029126;28;1300;-71
2022/07/08 01:28:25;;;;;;;;;;;21.50;74.00;;;;;;5071313;28;1898;-71
2022/07/08 01:30:51;;;;;;;;;;;21.50;74.00;;;;;;5071034;28;1056;-70
2022/07/08 01:33:16;;;;;;;;;;;21.50;74.00;;;;;;5024934;28;1304;-70
2022/07/08 01:35:42;;;;;;;;;;;21.50;74.00;;;;;;5051276;28;827;-71
2022/07/08 01:38:07;;;;;;;;;;;21.50;74.00;;;;;;5051399;28;1633;-69
2022/07/08 01:40:33;;;;;;;;;;;21.50;74.00;;;;;;5034097;28;1224;-69
2022/07/08 01:42:58;;;;;;;;;;;21.50;74.00;;;;;;5045618;28;1192;-68
2022/07/08 01:45:24;;;;;;;;;;;21.50;74.00;;;;;;5017695;28;1264;-70
2022/07/08 01:47:49;;;;;;;;;;;21.50;74.00;;;;;;5035467;28;1333;-70
2022/07/08 01:50:15;;;;;;;;;;;21.50;74.00;;;;;;5035353;28;2025;-70
2022/07/08 01:52:40;;;;;;;;;;;21.50;74.00;;;;;;5035511;28;1221;-70
2022/07/08 01:55:06;;;;;;;;;;;21.50;74.00;;;;;;5035247;28;1260;-71
2022/07/08 01:57:31;;;;;;;;;;;21.50;74.00;;;;;;5035511;28;1212;-70
2022/07/08 01:59:57;;;;;;;;;;;21.50;74.00;;;;;;5035761;28;905;-70
2022/07/08 02:02:22;;;;;;;;;;;21.50;74.00;;;;;;5035721;28;784;-70
2022/07/08 02:04:48;;;;;;;;;;;21.50;74.00;;;;;;5050758;28;819;-70
2022/07/08 02:07:13;;;;;;;;;;;21.50;74.00;;;;;;5051020;28;1192;-70
2022/07/08 02:09:39;;;;;;;;;;;21.50;74.00;;;;;;5051005;28;1977;-69
2022/07/08 02:12:20;;;;;;;;;;;21.50;74.00;;;;;;5035521;28;919;-70
2022/07/08 02:14:49;;;;;;;;;;;21.50;74.00;;;;;;5048718;28;811;-70
2022/07/08 02:17:15;;;;;;;;;;;21.50;74.00;;;;;;5030877;28;1208;-70
2022/07/08 02:19:41;;;;;;;;;;;21.50;74.00;;;;;;5026132;28;1116;-70
2022/07/08 02:22:07;;;;;;;;;;;21.50;74.00;;;;;;5017983;28;741;-70
2022/07/08 02:24:32;;;;;;;;;;;21.50;74.00;;;;;;5017475;28;891;-70
2022/07/08 02:26:58;;;;;;;;;;;21.50;74.00;;;;;;5036655;28;1204;-70
2022/07/08 02:29:23;;;;;;;;;;;21.50;74.00;;;;;;5054832;28;1906;-70
2022/07/08 02:31:49;;;;;;;;;;;21.50;74.00;;;;;;5055033;28;837;-70
2022/07/08 02:34:14;;;;;;;;;;;21.50;74.00;;;;;;5070269;28;846;-70
2022/07/08 02:36:40;;;;;;;;;;;21.50;74.00;;;;;;5055035;28;953;-70
2022/07/08 02:39:05;;;;;;;;;;;21.50;74.00;;;;;;5054981;28;1203;-70
2022/07/08 02:41:31;;;;;;;;;;;21.50;74.00;;;;;;5054951;28;823;-70
2022/07/08 02:43:56;;;;;;;;;;;21.50;74.00;;;;;;5054374;28;1006;-70
2022/07/08 02:46:22;;;;;;;;;;;21.50;74.00;;;;;;5036935;28;1137;-70
2022/07/08 02:48:47;;;;;;;;;;;21.50;74.00;;;;;;5054710;28;1898;-70
2022/07/08 02:51:13;;;;;;;;;;;21.50;74.00;;;;;;5054850;28;856;-70
2022/07/08 02:53:38;;;;;;;;;;;21.50;74.00;;;;;;5054655;28;946;-70
2022/07/08 02:56:04;;;;;;;;;;;21.50;74.00;;;;;;5070017;28;1009;-70
2022/07/08 02:58:29;;;;;;;;;;;21.50;74.00;;;;;;5054348;28;1221;-70
2022/07/08 03:00:55;;;;;;;;;;;21.50;74.00;;;;;;5049249;28;2196;-70
2022/07/08 03:03:20;;;;;;;;;;;21.50;74.00;;;;;;5053412;28;1256;-70
2022/07/08 03:05:45;;;;;;;;;;;21.50;74.10;;;;;;5034211;28;1133;-70
2022/07/08 03:08:11;;;;;;;;;;;21.50;74.00;;;;;;5034230;28;1971;-70
2022/07/08 03:10:36;;;;;;;;;;;21.50;74.00;;;;;;5034428;28;1075;-70
2022/07/08 03:13:02;;;;;;;;;;;21.50;74.00;;;;;;5034114;28;1107;-70
2022/07/08 03:15:27;;;;;;;;;;;21.50;74.00;;;;;;5049496;28;1103;-70
2022/07/08 03:17:53;;;;;;;;;;;21.50;74.00;;;;;;5034500;28;1197;-69
2022/07/08 03:20:18;;;;;;;;;;;21.50;74.00;;;;;;5000192;28;1616;-69
2022/07/08 03:22:44;;;;;;;;;;;21.50;74.00;;;;;;5016579;28;1006;-69
2022/07/08 03:25:09;;;;;;;;;;;21.50;74.00;;;;;;5033746;28;1144;-70
2022/07/08 03:27:35;;;;;;;;;;;21.50;74.00;;;;;;5023996;28;1221;-69
2022/07/08 03:30:00;;;;;;;;;;;21.50;74.00;;;;;;5033918;28;1898;-69
2022/07/08 03:32:26;;;;;;;;;;;21.50;74.00;;;;;;5032990;28;795;-69
2022/07/08 03:34:52;;;;;;;;;;;21.50;74.00;;;;;;5065735;28;1196;-70
2022/07/08 03:37:17;;;;;;;;;;;21.50;74.00;;;;;;5032633;28;1231;-70
2022/07/08 03:39:43;;;;;;;;;;;21.50;74.00;;;;;;5033753;28;1002;-70
2022/07/08 03:42:08;;;;;;;;;;;21.50;74.00;;;;;;5033631;28;1057;-70
2022/07/08 03:44:34;;;;;;;;;;;21.50;74.00;;;;;;5049286;28;1112;-70
2022/07/08 03:46:59;;;;;;;;;;;21.50;74.00;;;;;;5033600;28;1190;-70
2022/07/08 03:49:25;;;;;;;;;;;21.50;74.00;;;;;;5033899;28;1952;-70
2022/07/08 03:51:50;;;;;;;;;;;21.50;74.10;;;;;;5033733;28;816;-70
2022/07/08 03:54:15;;;;;;;;;;;21.50;74.00;;;;;;5033279;28;1065;-70
2022/07/08 03:56:41;;;;;;;;;;;21.50;74.00;;;;;;5033529;28;969;-70
2022/07/08 03:59:06;;;;;;;;;;;21.50;74.10;;;;;;5033603;28;1148;-68
2022/07/08 04:01:32;;;;;;;;;;;21.50;74.00;;;;;;5033636;28;859;-70
2022/07/08 04:03:57;;;;;;;;;;;21.50;74.00;;;;;;5031929;28;792;-70
2022/07/08 04:06:23;;;;;;;;;;;21.50;74.00;;;;;;5033429;28;883;-70
2022/07/08 04:08:48;;;;;;;;;;;21.50;74.10;;;;;;5033620;28;1902;-70
2022/07/08 04:11:13;;;;;;;;;;;21.50;74.10;;;;;;5033099;28;1236;-70
2022/07/08 04:13:39;;;;;;;;;;;21.50;74.00;;;;;;5033077;28;1075;-69
2022/07/08 04:16:06;;;;;;;;;;;21.50;74.00;;;;;;5048323;28;1127;-70
2022/07/08 04:18:31;;;;;;;;;;;21.50;74.00;;;;;;5033172;28;1271;-69
2022/07/08 04:20:57;;;;;;;;;;;21.50;74.00;;;;;;5033216;28;761;-70
2022/07/08 04:23:22;;;;;;;;;;;21.50;74.10;;;;;;5015471;28;1058;-71
2022/07/08 04:25:48;;;;;;;;;;;21.50;74.00;;;;;;5008529;28;1272;-70
2022/07/08 04:28:13;;;;;;;;;;;21.50;74.00;;;;;;5068315;28;1967;-70
2022/07/08 04:30:39;;;;;;;;;;;21.50;74.10;;;;;;5035025;28;1666;-69
2022/07/08 04:33:05;;;;;;;;;;;21.50;74.00;;;;;;5053024;28;854;-70
2022/07/08 04:35:31;;;;;;;;;;;21.50;74.80;;;;;;5052973;28;835;-70
2022/07/08 04:37:56;;;;;;;;;;;21.50;74.10;;;;;;5035201;28;1213;-70
2022/07/08 04:40:22;;;;;;;;;;;21.50;74.10;;;;;;5052811;28;888;-70
2022/07/08 04:42:47;;;;;;;;;;;21.50;74.10;;;;;;5052315;28;870;-70
2022/07/08 04:45:13;;;;;;;;;;;21.50;74.10;;;;;;5052568;28;883;-70
2022/07/08 04:47:38;;;;;;;;;;;21.50;74.10;;;;;;5052772;28;1335;-70
2022/07/08 04:50:04;;;;;;;;;;;21.50;74.10;;;;;;5052670;28;1902;-70
2022/07/08 04:52:29;;;;;;;;;;;21.50;74.10;;;;;;5068394;28;1060;-70
2022/07/08 04:54:55;;;;;;;;;;;21.50;74.10;;;;;;5067998;28;889;-70
2022/07/08 04:57:20;;;;;;;;;;;21.50;74.10;;;;;;5052647;28;1319;-70
2022/07/08 04:59:45;;;;;;;;;;;21.50;74.10;;;;;;5068137;28;878;-70
2022/07/08 05:02:11;;;;;;;;;;;21.50;74.10;;;;;;5052953;28;887;-71
2022/07/08 05:04:36;;;;;;;;;;;21.50;74.10;;;;;;5052746;28;973;-72
2022/07/08 05:07:02;;;;;;;;;;;21.50;74.10;;;;;;5068108;28;1183;-72
2022/07/08 05:09:27;;;;;;;;;;;21.50;74.10;;;;;;5052660;28;1979;-69
2022/07/08 05:11:53;;;;;;;;;;;21.50;74.10;;;;;;5068048;28;791;-70
2022/07/08 05:14:18;;;;;;;;;;;21.50;74.10;;;;;;5052357;28;771;-70
2022/07/08 05:16:44;;;;;;;;;;;21.50;74.10;;;;;;5036672;28;1249;-70
2022/07/08 05:19:09;;;;;;;;;;;21.50;74.10;;;;;;5032524;28;1164;-70
2022/07/08 05:21:38;;;;;;;;;;;21.50;74.10;;;;;;5015103;28;954;-72
2022/07/08 05:24:06;;;;;;;;;;;21.50;74.10;;;;;;5032367;28;859;-71
2022/07/08 05:26:32;;;;;;;;;;;21.50;74.10;;;;;;5030640;28;1215;-71
2022/07/08 05:28:57;;;;;;;;;;;21.50;74.10;;;;;;5067814;28;1906;-71
2022/07/08 05:31:23;;;;;;;;;;;21.50;74.10;;;;;;5052323;28;887;-71
2022/07/08 05:33:48;;;;;;;;;;;21.50;74.10;;;;;;5052239;28;831;-71
2022/07/08 05:36:14;;;;;;;;;;;21.50;74.10;;;;;;5068027;28;1052;-71
2022/07/08 05:38:39;;;;;;;;;;;21.50;74.00;;;;;;5052379;28;1283;-71
2022/07/08 05:41:04;;;;;;;;;;;21.50;74.10;;;;;;5052158;28;1046;-71
2022/07/08 05:43:30;;;;;;;;;;;21.50;74.10;;;;;;5052331;28;855;-70
2022/07/08 05:45:55;;;;;;;;;;;21.50;74.10;;;;;;5052564;28;822;-70
2022/07/08 05:48:21;;;;;;;;;;;21.50;74.10;;;;;;5052278;28;1932;-70
2022/07/08 05:50:47;;;;;;;;;;;21.50;74.10;;;;;;5052923;28;835;-70
2022/07/08 05:53:16;;;;;;;;;;;21.50;74.10;;;;;;5052268;28;732;-70
2022/07/08 05:55:44;;;;;;;;;;;21.50;74.10;;;;;;5054320;28;654;-70
2022/07/08 05:58:10;;;;;;;;;;;21.50;74.10;;;;;;5055692;28;1192;-71
2022/07/08 06:00:36;;;;;;;;;;;21.50;74.10;;;;;;5055710;28;874;-71
2022/07/08 06:03:03;;;;;;;;;;;21.50;74.10;;;;;;5071249;28;1014;-70
2022/07/08 06:05:29;;;;;;;;;;;21.50;74.10;;;;;;5070569;28;827;-69
2022/07/08 06:07:54;;;;;;;;;;;21.50;74.10;;;;;;5070859;28;1174;-69
2022/07/08 06:10:20;;;;;;;;;;;21.50;74.10;;;;;;5055376;28;1991;-70
2022/07/08 06:12:45;;;;;;;;;;;21.50;74.10;;;;;;5055568;28;840;-69
2022/07/08 06:15:14;;;;;;;;;;;21.50;74.10;;;;;;5051948;28;1201;-70
2022/07/08 06:17:40;;;;;;;;;;;21.50;74.10;;;;;;5035559;28;1208;-70
2022/07/08 06:20:06;;;;;;;;;;;21.50;74.10;;;;;;5017649;28;1119;-69
2022/07/08 06:22:32;;;;;;;;;;;21.50;74.10;;;;;;5017549;28;930;-69
2022/07/08 06:24:57;;;;;;;;;;;21.50;74.10;;;;;;5020024;28;1139;-69
2022/07/08 06:27:22;;;;;;;;;;;21.50;74.10;;;;;;5055659;28;1280;-69
2022/07/08 06:29:48;;;;;;;;;;;21.50;74.10;;;;;;5055076;28;1910;-69
2022/07/08 06:32:14;;;;;;;;;;;21.50;74.10;;;;;;5055148;28;895;-69
2022/07/08 06:34:40;;;;;;;;;;;21.50;74.10;;;;;;5054538;28;894;-69
2022/07/08 06:37:05;;;;;;;;;;;21.50;74.20;;;;;;5054963;28;1275;-69
2022/07/08 06:39:31;;;;;;;;;;;21.50;74.10;;;;;;5037081;28;1065;-69
2022/07/08 06:41:56;;;;;;;;;;;21.50;74.10;;;;;;5055013;28;803;-69
2022/07/08 06:44:22;;;;;;;;;;;21.50;74.80;;;;;;5054966;28;727;-69
2022/07/08 06:46:47;;;;;;;;;;;21.50;74.10;;;;;;5055057;28;784;-68
2022/07/08 06:49:12;;;;;;;;;;;21.50;74.10;;;;;;5054688;28;1894;-68
2022/07/08 06:51:38;;;;;;;;;;;21.50;74.10;;;;;;5054776;28;796;-69
2022/07/08 06:56:47;;;;;;;;;;;21.50;74.10;;;;;;5054753;28;618;-70
2022/07/08 06:59:13;;;;;;;;;;;21.50;74.10;;;;;;5054571;28;1295;-70
2022/07/08 07:01:38;;;;;;;;;;;21.50;74.10;;;;;;5054689;28;799;-70
2022/07/08 07:04:04;;;;;;;;;;;21.50;74.10;;;;;;5054260;28;902;-70
2022/07/08 07:06:29;;;;;;;;;;;21.50;74.10;;;;;;5054114;28;998;-70
2022/07/08 07:08:55;;;;;;;;;;;21.50;74.10;;;;;;5070699;28;1962;-69
2022/07/08 07:11:20;;;;;;;;;;;21.50;74.10;;;;;;5054347;28;841;-70
2022/07/08 07:13:47;;;;;;;;;;;21.50;74.10;;;;;;5054292;28;784;-70
2022/07/08 07:16:13;;;;;;;;;;;21.50;74.10;;;;;;5042481;28;1146;-70
2022/07/08 07:18:38;;;;;;;;;;;21.50;74.20;;;;;;5034204;28;1294;-72
2022/07/08 07:21:04;;;;;;;;;;;21.50;74.20;;;;;;5034215;28;935;-70
2022/07/08 07:23:29;;;;;;;;;;;21.50;74.20;;;;;;5034289;28;807;-70
2022/07/08 07:25:55;;;;;;;;;;;21.50;74.10;;;;;;5026698;28;1190;-70
2022/07/08 07:28:20;;;;;;;;;;;21.50;74.10;;;;;;5069470;28;1902;-70
2022/07/08 07:30:46;;;;;;;;;;;21.50;74.10;;;;;;5054102;28;863;-70
2022/07/08 07:33:11;;;;;;;;;;;21.50;74.10;;;;;;5054001;28;780;-70
2022/07/08 07:35:37;;;;;;;;;;;21.50;74.20;;;;;;5053263;28;697;-70
2022/07/08 07:38:02;;;;;;;;;;;21.50;74.10;;;;;;5054057;28;1184;-70
2022/07/08 07:40:28;;;;;;;;;;;21.50;74.20;;;;;;5053747;28;894;-70
2022/07/08 07:42:53;;;;;;;;;;;21.50;74.20;;;;;;5053840;28;870;-71
2022/07/08 07:45:19;;;;;;;;;;;21.50;74.20;;;;;;5053467;28;926;-70
2022/07/08 07:47:44;;;;;;;;;;;21.50;74.10;;;;;;5053746;28;1268;-70
2022/07/08 07:50:12;;;;;;;;;;;21.50;74.10;;;;;;5053914;28;1955;-70
2022/07/08 07:52:37;;;;;;;;;;;21.50;74.10;;;;;;5068773;28;784;-71
2022/07/08 07:55:03;;;;;;;;;;;21.50;74.10;;;;;;5053163;28;911;-71
2022/07/08 07:57:28;;;;;;;;;;;21.50;74.10;;;;;;5053617;28;1209;-70
2022/07/08 07:59:54;;;;;;;;;;;21.50;74.10;;;;;;5035725;28;1192;-70
2022/07/08 08:02:19;;;;;;;;;;;21.50;74.10;;;;;;5045355;28;2157;-70
2022/07/08 08:04:45;;;;;;;;;;;21.50;74.10;;;;;;5030362;28;2127;-71
2022/07/08 08:07:10;;;;;;;;;;;21.50;74.10;;;;;;5028580;28;1299;-71
2022/07/08 08:09:36;;;;;;;;;;;21.50;74.10;;;;;;5032817;28;1973;-71
2022/07/08 08:12:01;;;;;;;;;;;21.50;74.10;;;;;;5015662;28;1237;-70
2022/07/08 08:14:26;;;;;;;;;;;21.50;74.10;;;;;;5032741;28;1228;-71
2022/07/08 08:16:52;;;;;;;;;;;21.50;74.10;;;;;;5032365;28;1261;-71
2022/07/08 08:19:18;;;;;;;;;;;21.50;74.10;;;;;;5032568;28;1315;-71
2022/07/08 08:21:43;;;;;;;;;;;21.50;74.10;;;;;;5032972;28;1177;-71
2022/07/08 08:24:09;;;;;;;;;;;21.50;74.10;;;;;;5032620;28;1299;-71
2022/07/08 08:26:34;;;;;;;;;;;21.50;74.10;;;;;;5035212;28;1229;-71
2022/07/08 08:28:59;;;;;;;;;;;21.50;74.10;;;;;;5032632;28;1961;-71
2022/07/08 08:31:25;;;;;;;;;;;21.50;74.10;;;;;;5015119;28;1173;-71
2022/07/08 08:33:50;;;;;;;;;;;21.50;74.10;;;;;;5033032;28;1196;-71
2022/07/08 08:36:16;;;;;;;;;;;21.50;74.10;;;;;;5015270;28;1257;-71
2022/07/08 08:38:41;;;;;;;;;;;21.50;74.10;;;;;;5015386;28;1199;-71
2022/07/08 08:41:07;;;;;;;;;;;21.50;74.10;;;;;;5033329;28;871;-70
2022/07/08 08:43:32;;;;;;;;;;;21.50;74.10;;;;;;5030352;28;2210;-69
2022/07/08 08:45:57;;;;;;;;;;;21.50;74.10;;;;;;4998140;28;1395;-69
2022/07/08 08:48:23;;;;;;;;;;;21.50;74.10;;;;;;5041268;28;1974;-70
2022/07/08 08:50:53;;;;;;;;;;;21.50;74.10;;;;;;5039605;28;1239;-69
2022/07/08 08:53:19;;;;;;;;;;;21.50;74.10;;;;;;5039767;28;1243;-70
2022/07/08 08:55:44;;;;;;;;;;;21.50;74.10;;;;;;5014969;28;1228;-69
2022/07/08 08:58:10;;;;;;;;;;;21.50;74.10;;;;;;5039561;28;1365;-69
2022/07/08 09:00:35;;;;;;;;;;;21.50;74.10;;;;;;5032421;28;1173;-69
2022/07/08 09:03:01;;;;;;;;;;;21.50;74.10;;;;;;5032263;28;1192;-70
2022/07/08 09:05:27;;;;;;;;;;;21.50;74.10;;;;;;5032056;28;1256;-69
2022/07/08 09:07:52;;;;;;;;;;;21.50;74.10;;;;;;5036795;28;1311;-70
2022/07/08 09:10:18;;;;;;;;;;;21.50;74.10;;;;;;5042305;28;1906;-69
2022/07/08 09:12:58;;;;;;;;;;;21.50;74.10;;;;;;5030270;28;2181;-69
2022/07/08 09:15:33;;;;;;;;;;;21.50;74.10;;;;;;5030241;28;1213;-68
2022/07/08 09:17:59;;;;;;;;;;;21.50;74.10;;;;;;5033044;28;1286;-68
2022/07/08 09:20:24;;;;;;;;;;;21.50;74.10;;;;;;5032667;28;1162;-71
2022/07/08 09:22:50;;;;;;;;;;;21.50;74.10;;;;;;5032683;28;984;-70
2022/07/08 09:25:15;;;;;;;;;;;21.50;74.10;;;;;;5037353;28;1179;-71
2022/07/08 09:27:40;;;;;;;;;;;21.50;74.10;;;;;;5052405;28;1298;-71
2022/07/08 09:30:06;;;;;;;;;;;21.50;74.10;;;;;;5056154;28;1951;-70
2022/07/08 09:32:32;;;;;;;;;;;21.50;74.10;;;;;;5056449;28;978;-71
2022/07/08 09:34:57;;;;;;;;;;;21.50;74.10;;;;;;5055978;28;840;-71
2022/07/08 09:37:23;;;;;;;;;;;21.50;74.20;;;;;;5050289;28;1305;-70
2022/07/08 09:39:48;;;;;;;;;;;21.50;74.10;;;;;;5051768;28;954;-71
2022/07/08 09:42:14;;;;;;;;;;;21.50;74.10;;;;;;5056174;28;888;-71
2022/07/08 09:44:39;;;;;;;;;;;21.50;74.10;;;;;;5070972;28;924;-71
2022/07/08 09:47:11;;;;;;;;;;;21.50;74.10;;;;;;5071358;28;1350;-71
2022/07/08 09:49:38;;;;;;;;;;;21.50;74.10;;;;;;5055735;28;1953;-71
2022/07/08 09:52:04;;;;;;;;;;;21.50;74.20;;;;;;5071157;28;965;-71
2022/07/08 09:54:30;;;;;;;;;;;21.50;74.10;;;;;;5055496;28;827;-71
2022/07/08 09:56:59;;;;;;;;;;;21.50;74.10;;;;;;5071498;28;1177;-71
2022/07/08 09:59:24;;;;;;;;;;;21.50;74.10;;;;;;5056048;28;859;-71
2022/07/08 10:01:51;;;;;;;;;;;21.50;74.10;;;;;;5055663;28;1010;-71
2022/07/08 10:04:16;;;;;;;;;;;21.50;74.10;;;;;;5055250;28;772;-71
2022/07/08 10:06:42;;;;;;;;;;;21.50;74.10;;;;;;5071032;28;926;-71
2022/07/08 10:09:07;;;;;;;;;;;21.50;74.10;;;;;;5055241;28;1973;-71
2022/07/08 10:11:33;;;;;;;;;;;21.50;74.10;;;;;;5055489;28;1042;-71
2022/07/08 10:13:58;;;;;;;;;;;21.50;74.10;;;;;;5055068;28;1010;-71
2022/07/08 10:16:23;;;;;;;;;;;21.50;74.10;;;;;;5057567;28;1161;-71
2022/07/08 10:18:49;;;;;;;;;;;21.50;74.10;;;;;;5017627;28;1315;-71
2022/07/08 10:21:16;;;;;;;;;;;21.50;74.10;;;;;;5017623;28;955;-71
2022/07/08 10:23:45;;;;;;;;;;;21.50;74.10;;;;;;5017433;28;903;-71
2022/07/08 10:26:11;;;;;;;;;;;21.50;74.10;;;;;;5030307;28;1001;-71
2022/07/08 10:28:37;;;;;;;;;;;21.50;74.10;;;;;;5070512;28;1991;-70
2022/07/08 10:31:03;;;;;;;;;;;21.50;74.10;;;;;;5055044;28;807;-71
2022/07/08 10:33:29;;;;;;;;;;;21.50;74.10;;;;;;5055208;28;894;-72
2022/07/08 10:36:02;;;;;;;;;;;21.50;74.10;;;;;;5054717;28;799;-71
2022/07/08 10:38:45;;;;;;;;;;;21.50;74.10;;;;;;5070741;28;1285;-69
2022/07/08 10:41:11;;;;;;;;;;;21.50;74.10;;;;;;5054311;28;819;-72
2022/07/08 10:43:37;;;;;;;;;;;21.50;74.10;;;;;;5070210;28;894;-69
2022/07/08 10:46:04;;;;;;;;;;;21.50;74.10;;;;;;5070252;28;811;-70
2022/07/08 10:48:45;;;;;;;;;;;21.50;74.10;;;;;;5034944;28;1891;-69
2022/07/08 10:51:19;;;;;;;;;;;21.40;74.00;;;;;;5014933;28;919;-69
2022/07/08 10:53:48;;;;;;;;;;;21.50;74.10;;;;;;5014787;28;882;-69
2022/07/08 10:56:33;;;;;;;;;;;21.50;74.10;;;;;;4997451;28;1002;-69
2022/07/08 10:59:17;;;;;;;;;;;21.50;74.10;;;;;;5010738;28;1184;-69
2022/07/08 11:01:56;;;;;;;;;;;21.50;74.10;;;;;;5014539;28;780;-71
2022/07/08 11:04:27;;;;;;;;;;;21.50;74.20;;;;;;5014567;28;805;-71
2022/07/08 11:06:53;;;;;;;;;;;21.50;74.20;;;;;;5016473;28;2161;-71
2022/07/08 11:09:19;;;;;;;;;;;21.50;74.20;;;;;;5033472;28;2224;-71
2022/07/08 11:11:45;;;;;;;;;;;21.50;74.20;;;;;;5034304;28;1179;-71
2022/07/08 11:14:11;;;;;;;;;;;21.50;74.10;;;;;;5049218;28;1256;-71
2022/07/08 11:16:37;;;;;;;;;;;21.50;74.20;;;;;;5033883;28;1973;-71
2022/07/08 11:19:04;;;;;;;;;;;21.50;74.10;;;;;;5034077;28;1342;-71
2022/07/08 11:21:30;;;;;;;;;;;21.50;74.20;;;;;;5016572;28;903;-71
2022/07/08 11:23:56;;;;;;;;;;;21.50;74.10;;;;;;5034034;28;864;-71
2022/07/08 11:26:22;;;;;;;;;;;21.50;74.10;;;;;;5030892;28;1171;-71
2022/07/08 11:28:47;;;;;;;;;;;21.50;74.10;;;;;;5053774;28;1898;-71
2022/07/08 11:31:25;;;;;;;;;;;21.50;74.10;;;;;;5054122;28;883;-71
2022/07/08 11:33:51;;;;;;;;;;;21.50;74.10;;;;;;5069213;28;1112;-71
2022/07/08 11:36:17;;;;;;;;;;;21.50;74.10;;;;;;5053802;28;800;-71
2022/07/08 11:38:43;;;;;;;;;;;21.50;74.10;;;;;;5069441;28;1209;-71
2022/07/08 11:41:09;;;;;;;;;;;21.50;74.10;;;;;;5069284;28;811;-71
2022/07/08 11:43:34;;;;;;;;;;;21.50;74.10;;;;;;5053514;28;1010;-71
2022/07/08 11:45:59;;;;;;;;;;;21.50;74.10;;;;;;5068988;28;776;-71
2022/07/08 11:48:37;;;;;;;;;;;21.50;74.10;;;;;;5053813;28;1956;-71
2022/07/08 11:51:03;;;;;;;;;;;21.40;74.80;;;;;;5069116;28;808;-71
2022/07/08 11:53:28;;;;;;;;;;;21.50;74.10;;;;;;5068089;28;974;-71
2022/07/08 11:55:54;;;;;;;;;;;21.50;74.10;;;;;;5068553;28;907;-71
2022/07/08 11:58:22;;;;;;;;;;;21.50;74.10;;;;;;5053695;28;1304;-71
2022/07/08 12:00:48;;;;;;;;;;;21.40;74.00;;;;;;5053425;28;811;-71
2022/07/08 12:03:13;;;;;;;;;;;21.40;74.00;;;;;;5053688;28;1068;-71
2022/07/08 12:05:39;;;;;;;;;;;21.50;74.10;;;;;;5053035;28;819;-72
2022/07/08 12:08:11;;;;;;;;;;;21.50;74.10;;;;;;5068599;28;1211;-71
2022/07/08 12:10:36;;;;;;;;;;;21.50;74.10;;;;;;5068235;28;1901;-71
2022/07/08 12:13:02;;;;;;;;;;;21.50;74.10;;;;;;5052985;28;1793;-70
2022/07/08 12:15:36;;;;;;;;;;;21.50;74.10;;;;;;5027344;28;1108;-70
2022/07/08 12:18:02;;;;;;;;;;;21.40;74.00;;;;;;5033040;28;1293;-69
2022/07/08 12:20:34;;;;;;;;;;;21.40;74.00;;;;;;5033043;28;1195;-69
2022/07/08 12:22:59;;;;;;;;;;;21.50;74.10;;;;;;5032912;28;887;-69
2022/07/08 12:25:25;;;;;;;;;;;21.50;74.10;;;;;;5039761;28;1175;-69
2022/07/08 12:27:54;;;;;;;;;;;21.50;74.10;;;;;;5053069;28;1210;-70
2022/07/08 12:30:24;;;;;;;;;;;21.40;74.00;;;;;;5068451;28;1902;-70
2022/07/08 12:32:49;;;;;;;;;;;21.50;74.10;;;;;;5068506;28;921;-70
2022/07/08 12:35:15;;;;;;;;;;;21.40;74.00;;;;;;5037131;28;2276;-71
2022/07/08 12:37:41;;;;;;;;;;;21.50;74.10;;;;;;5032472;28;1362;-71
2022/07/08 12:40:14;;;;;;;;;;;21.50;74.10;;;;;;5019688;28;1111;-71
2022/07/08 12:42:39;;;;;;;;;;;21.40;74.00;;;;;;5048273;28;808;-72
2022/07/08 12:45:14;;;;;;;;;;;21.50;74.10;;;;;;5024055;28;2267;-72
2022/07/08 12:47:40;;;;;;;;;;;21.40;74.00;;;;;;5039846;28;1284;-71
2022/07/08 12:50:06;;;;;;;;;;;21.50;74.10;;;;;;5048198;28;1902;-71
2022/07/08 12:52:32;;;;;;;;;;;21.50;74.10;;;;;;5032723;28;1131;-72
2022/07/08 12:54:57;;;;;;;;;;;21.40;74.00;;;;;;5032621;28;1022;-71
2022/07/08 12:57:22;;;;;;;;;;;21.40;74.00;;;;;;5032883;28;1216;-71
2022/07/08 12:59:48;;;;;;;;;;;21.50;74.10;;;;;;5032911;28;792;-71
2022/07/08 13:02:13;;;;;;;;;;;21.40;74.00;;;;;;5032627;28;907;-72
2022/07/08 13:04:40;;;;;;;;;;;21.50;74.10;;;;;;5017407;28;1343;-72
2022/07/08 13:07:08;;;;;;;;;;;21.40;74.00;;;;;;5036677;28;1298;-72
2022/07/08 13:09:33;;;;;;;;;;;21.40;74.00;;;;;;5060846;23;3741;-67
2022/07/08 13:11:59;;;;;;;;;;;21.50;74.10;;;;;;5035367;28;875;-66
2022/07/08 13:14:24;;;;;;;;;;;21.40;74.00;;;;;;5035935;28;934;-66
2022/07/08 13:16:50;;;;;;;;;;;21.50;74.10;;;;;;5036423;28;1112;-67
2022/07/08 13:19:15;;;;;;;;;;;21.40;74.00;;;;;;5028105;28;1441;-66
2022/07/08 13:21:40;;;;;;;;;;;21.40;74.00;;;;;;5035145;28;780;-66
2022/07/08 13:24:06;;;;;;;;;;;21.50;74.10;;;;;;5035829;28;1001;-67
2022/07/08 13:26:32;;;;;;;;;;;21.50;74.10;;;;;;5051584;28;1182;-66
2022/07/08 13:28:57;;;;;;;;;;;21.40;74.00;;;;;;5054586;28;1973;-66
2022/07/08 13:31:23;;;;;;;;;;;21.50;74.10;;;;;;5054671;28;1359;-66
2022/07/08 13:33:48;;;;;;;;;;;21.40;74.00;;;;;;5055533;28;1060;-66
2022/07/08 13:36:17;;;;;;;;;;;21.40;74.00;;;;;;5054654;28;930;-66
2022/07/08 13:38:43;;;;;;;;;;;21.40;74.00;;;;;;5054635;28;1296;-66
2022/07/08 13:41:08;;;;;;;;;;;21.40;74.00;;;;;;5055778;28;1017;-66
2022/07/08 13:43:34;;;;;;;;;;;21.40;74.00;;;;;;5055849;28;791;-66
2022/07/08 13:45:59;;;;;;;;;;;21.50;74.10;;;;;;5055966;28;878;-66
2022/07/08 13:48:25;;;;;;;;;;;21.40;74.00;;;;;;5054528;28;1894;-66
2022/07/08 13:50:50;;;;;;;;;;;21.50;74.10;;;;;;5055822;28;791;-67
2022/07/08 13:53:16;;;;;;;;;;;21.40;74.00;;;;;;5055952;28;882;-66
2022/07/08 13:55:41;;;;;;;;;;;21.40;74.00;;;;;;5054176;28;1364;-66
2022/07/08 13:58:07;;;;;;;;;;;21.40;74.10;;;;;;5054825;28;1302;-67
2022/07/08 14:00:32;;;;;;;;;;;21.50;74.20;;;;;;5056041;28;773;-67
2022/07/08 14:02:58;;;;;;;;;;;21.40;74.00;;;;;;5055500;28;784;-65
2022/07/08 14:05:23;;;;;;;;;;;21.40;74.00;;;;;;5055069;28;923;-66
2022/07/08 14:07:49;;;;;;;;;;;21.40;74.10;;;;;;5054162;28;1207;-66
2022/07/08 14:10:14;;;;;;;;;;;21.50;74.10;;;;;;5055123;28;1969;-66
2022/07/08 14:12:39;;;;;;;;;;;21.40;74.00;;;;;;5055337;28;844;-66
2022/07/08 14:15:05;;;;;;;;;;;21.50;74.10;;;;;;5051397;28;1094;-66
2022/07/08 14:17:32;;;;;;;;;;;21.50;74.10;;;;;;5035209;28;855;-66
2022/07/08 14:19:58;;;;;;;;;;;21.40;74.00;;;;;;5035106;28;1194;-67
2022/07/08 14:22:23;;;;;;;;;;;21.40;74.10;;;;;;5033624;28;887;-66
2022/07/08 14:24:48;;;;;;;;;;;21.40;74.10;;;;;;5034848;28;1196;-66
2022/07/08 14:27:14;;;;;;;;;;;21.40;74.10;;;;;;5053623;28;899;-66
2022/07/08 14:29:39;;;;;;;;;;;21.40;74.10;;;;;;5054761;28;2089;-66
2022/07/08 14:32:05;;;;;;;;;;;21.40;74.10;;;;;;5054623;28;878;-66